createdAt,value
2022-12-14T00:00:16.042Z,100918.91
2022-12-14T00:02:46.652Z,100910.06
2022-12-14T00:05:20.386Z,100920.84
2022-12-14T00:07:50.672Z,100920.00
2022-12-14T00:10:22.870Z,100910.78
2022-12-14T00:12:53.501Z,100907.13
2022-12-14T00:15:26.156Z,100903.50
2022-12-14T00:17:56.221Z,100908.31
2022-12-14T00:20:27.840Z,100903.50
2022-12-14T00:22:58.940Z,100916.75
2022-12-14T00:25:31.533Z,100916.38
2022-12-14T00:28:02.177Z,100918.38
2022-12-14T00:30:32.314Z,100918.75
2022-12-14T00:33:03.301Z,100922.38
2022-12-14T00:35:34.009Z,100918.75
2022-12-14T00:38:04.882Z,100919.56
2022-12-14T00:40:37.020Z,100930.81
2022-12-14T00:43:20.244Z,100934.81
2022-12-14T00:45:51.105Z,100944.41
2022-12-14T00:48:24.325Z,100944.41
2022-12-14T00:50:57.532Z,100949.66
2022-12-14T00:53:28.412Z,100949.22
2022-12-14T00:56:07.927Z,100943.59
2022-12-14T00:58:38.616Z,100940.34
2022-12-14T01:01:13.475Z,100935.91
2022-12-14T01:03:44.040Z,100936.59
2022-12-14T01:06:19.094Z,100929.72
2022-12-14T01:08:49.781Z,100930.88
2022-12-14T01:11:21.717Z,100929.25
2022-12-14T01:13:51.724Z,100937.69
2022-12-14T01:16:22.601Z,100942.47
2022-12-14T01:18:53.055Z,100945.28
2022-12-14T01:21:26.450Z,100938.84
2022-12-14T01:23:59.783Z,100948.09
2022-12-14T01:26:36.130Z,100939.22
2022-12-14T01:29:07.298Z,100934.78
2022-12-14T01:31:39.770Z,100927.53
2022-12-14T01:34:10.582Z,100922.69
2022-12-14T01:36:42.083Z,100914.63
2022-12-14T01:39:16.779Z,100900.59
2022-12-14T01:41:53.674Z,100895.75
2022-12-14T01:44:59.683Z,100886.44
2022-12-14T01:47:42.639Z,100886.34
2022-12-14T01:50:23.262Z,100886.69
2022-12-14T01:52:58.921Z,100889.88
2022-12-14T01:55:35.720Z,100896.66
2022-12-14T01:58:18.036Z,100887.44
2022-12-14T02:00:48.720Z,100889.41
2022-12-14T02:03:22.787Z,100888.22
2022-12-14T02:05:59.047Z,100891.03
2022-12-14T02:08:30.854Z,100884.94
2022-12-14T02:11:02.917Z,100895.38
2022-12-14T02:13:39.305Z,100899.84
2022-12-14T02:16:11.024Z,100902.66
2022-12-14T02:18:41.083Z,100904.63
2022-12-14T02:21:28.320Z,100911.88
2022-12-14T02:25:03.164Z,100928.28
2022-12-14T02:28:06.628Z,100935.44
2022-12-14T02:30:43.188Z,100949.50
2022-12-14T02:33:35.954Z,100949.88
2022-12-14T02:36:20.711Z,100940.59
2022-12-14T02:39:05.773Z,100933.00
2022-12-14T02:41:47.226Z,100931.84
2022-12-14T02:44:34.489Z,100938.63
2022-12-14T02:47:14.881Z,100933.00
2022-12-14T02:50:04.880Z,100928.56
2022-12-14T02:52:48.776Z,100934.66
2022-12-14T02:55:26.874Z,100941.91
2022-12-14T02:58:04.617Z,100947.53
2022-12-14T03:00:40.004Z,100947.53
2022-12-14T03:03:12.557Z,100948.78
2022-12-14T03:05:43.314Z,100940.34
2022-12-14T03:08:19.325Z,100951.59
2022-12-14T03:10:56.866Z,100952.78
2022-12-14T03:13:33.286Z,100952.78
2022-12-14T03:16:11.000Z,100947.53
2022-12-14T03:18:53.027Z,100941.06
2022-12-14T03:21:30.418Z,100936.16
2022-12-14T03:24:05.143Z,100930.53
2022-12-14T03:26:47.432Z,100935.34
2022-12-14T03:29:25.732Z,100934.53
2022-12-14T03:32:00.026Z,100950.56
2022-12-14T03:34:41.010Z,100954.22
2022-12-14T03:37:19.363Z,100950.09
2022-12-14T03:39:51.461Z,100961.34
2022-12-14T03:42:28.079Z,100969.78
2022-12-14T03:45:07.426Z,100955.25
2022-12-14T03:48:04.350Z,100953.66
2022-12-14T03:50:48.172Z,100963.59
2022-12-14T03:53:26.891Z,100959.50
2022-12-14T03:56:08.840Z,100963.50
2022-12-14T03:58:56.899Z,100961.03
2022-12-14T04:01:41.248Z,100958.56
2022-12-14T04:04:17.410Z,100970.16
2022-12-14T04:07:01.521Z,100973.78
2022-12-14T04:09:42.825Z,100972.97
2022-12-14T04:12:36.838Z,100974.13
2022-12-14T04:15:27.028Z,100974.50
2022-12-14T04:18:21.038Z,100968.03
2022-12-14T04:20:58.672Z,100976.38
2022-12-14T04:23:56.727Z,100973.91
2022-12-14T04:26:40.166Z,100978.28
2022-12-14T04:29:32.754Z,100970.19
2022-12-14T04:32:09.951Z,100976.16
2022-12-14T04:34:43.901Z,100985.38
2022-12-14T04:37:19.676Z,100984.59
2022-12-14T04:39:56.329Z,100979.78
2022-12-14T04:42:33.243Z,100983.78
2022-12-14T04:45:12.732Z,100985.75
2022-12-14T04:47:52.731Z,100987.75
2022-12-14T04:50:31.231Z,100974.06
2022-12-14T04:53:11.341Z,100982.47
2022-12-14T04:55:51.785Z,100974.06
2022-12-14T04:58:27.115Z,100982.47
2022-12-14T05:01:19.409Z,100991.75
2022-12-14T05:04:12.139Z,100984.47
2022-12-14T05:06:57.368Z,100991.28
2022-12-14T05:09:32.908Z,101001.69
2022-12-14T05:12:15.381Z,100996.88
2022-12-14T05:14:50.997Z,101000.97
2022-12-14T05:17:22.443Z,101005.78
2022-12-14T05:19:54.677Z,101016.66
2022-12-14T05:22:25.605Z,101015.47
2022-12-14T05:24:55.665Z,101017.50
2022-12-14T05:27:28.634Z,101018.28
2022-12-14T05:30:00.328Z,101024.28
2022-12-14T05:32:31.826Z,101023.44
2022-12-14T05:35:02.326Z,101032.69
2022-12-14T05:37:33.058Z,101025.91
2022-12-14T05:40:02.747Z,101036.78
2022-12-14T05:42:38.259Z,101027.19
2022-12-14T05:45:15.179Z,101036.78
2022-12-14T05:47:45.586Z,101031.63
2022-12-14T05:50:16.384Z,101029.63
2022-12-14T05:52:46.974Z,101044.97
2022-12-14T05:55:17.796Z,101048.22
2022-12-14T05:57:50.468Z,101035.03
2022-12-14T06:00:22.213Z,101031.84
2022-12-14T06:02:53.265Z,101037.84
2022-12-14T06:05:24.171Z,101050.72
2022-12-14T06:07:54.656Z,101048.72
2022-12-14T06:10:24.854Z,101040.28
2022-12-14T06:12:59.853Z,101050.34
2022-12-14T06:15:33.934Z,101053.97
2022-12-14T06:18:04.658Z,101062.88
2022-12-14T06:20:35.181Z,101057.25
2022-12-14T06:23:06.098Z,101063.69
2022-12-14T06:25:36.471Z,101067.31
2022-12-14T06:28:09.404Z,101068.16
2022-12-14T06:30:39.745Z,101073.75
2022-12-14T06:33:10.598Z,101079.84
2022-12-14T06:35:45.951Z,101083.97
2022-12-14T06:38:17.565Z,101089.22
2022-12-14T06:40:48.835Z,101088.88
2022-12-14T06:43:21.804Z,101089.34
2022-12-14T06:45:54.087Z,101090.63
2022-12-14T06:48:24.730Z,101093.88
2022-12-14T06:50:55.867Z,101093.53
2022-12-14T06:53:27.102Z,101086.75
2022-12-14T06:55:57.928Z,101098.81
2022-12-14T06:58:32.612Z,101098.44
2022-12-14T07:01:05.835Z,101096.47
2022-12-14T07:03:37.318Z,101090.50
2022-12-14T07:06:09.803Z,101092.94
2022-12-14T07:08:41.589Z,101094.56
2022-12-14T07:11:15.079Z,101090.59
2022-12-14T07:13:49.175Z,101089.91
2022-12-14T07:16:22.941Z,101085.91
2022-12-14T07:18:53.851Z,101085.53
2022-12-14T07:21:25.685Z,101090.81
2022-12-14T07:23:56.821Z,101088.13
2022-12-14T07:26:31.244Z,101080.50
2022-12-14T07:29:07.119Z,101088.22
2022-12-14T07:31:37.256Z,101089.50
2022-12-14T07:34:09.618Z,101101.22
2022-12-14T07:36:40.304Z,101093.22
2022-12-14T07:39:13.322Z,101095.31
2022-12-14T07:41:44.361Z,101086.56
2022-12-14T07:44:17.714Z,101089.56
2022-12-14T07:46:47.951Z,101098.31
2022-12-14T07:49:18.813Z,101101.47
2022-12-14T07:51:49.031Z,101098.16
2022-12-14T07:54:19.630Z,101087.88
2022-12-14T07:56:51.625Z,101098.53
2022-12-14T07:59:23.793Z,101091.81
2022-12-14T08:01:56.489Z,101095.94
2022-12-14T08:04:30.606Z,101097.19
2022-12-14T08:07:00.742Z,101090.03
2022-12-14T08:09:30.531Z,101082.50
2022-12-14T08:12:00.727Z,101081.59
2022-12-14T08:14:33.168Z,101081.00
2022-12-14T08:17:04.578Z,101075.78
2022-12-14T08:19:34.842Z,101083.09
2022-12-14T08:22:08.116Z,101083.06
2022-12-14T08:24:38.935Z,101078.63
2022-12-14T08:27:10.408Z,101072.16
2022-12-14T08:29:43.043Z,101065.72
2022-12-14T08:32:13.031Z,101064.81
2022-12-14T08:34:43.808Z,101060.06
2022-12-14T08:37:14.630Z,101053.44
2022-12-14T08:39:47.730Z,101057.63
2022-12-14T08:42:20.515Z,101059.28
2022-12-14T08:44:52.598Z,101054.03
2022-12-14T08:47:22.606Z,101056.78
2022-12-14T08:50:02.012Z,101046.63
2022-12-14T08:52:32.639Z,101041.28
2022-12-14T08:55:03.401Z,101038.31
2022-12-14T08:57:34.263Z,101037.00
2022-12-14T09:00:09.322Z,101036.47
2022-12-14T09:02:40.786Z,101030.69
2022-12-14T09:05:12.879Z,101030.59
2022-12-14T09:07:43.236Z,101035.78
2022-12-14T09:10:14.172Z,101025.59
2022-12-14T09:12:44.322Z,101013.06
2022-12-14T09:15:17.445Z,101009.00
2022-12-14T09:17:47.801Z,101013.00
2022-12-14T09:20:17.603Z,101006.53
2022-12-14T09:22:47.793Z,101004.09
2022-12-14T09:25:18.632Z,100996.78
2022-12-14T09:27:49.176Z,101001.69
2022-12-14T09:30:26.657Z,100994.50
2022-12-14T09:32:58.392Z,100992.66
2022-12-14T09:35:31.547Z,100992.09
2022-12-14T09:38:03.961Z,100984.53
2022-12-14T09:40:36.630Z,100983.75
2022-12-14T09:43:12.308Z,100974.47
2022-12-14T09:45:55.034Z,100967.94
2022-12-14T09:48:29.110Z,100969.50
2022-12-14T09:51:00.042Z,100962.19
2022-12-14T09:53:31.090Z,100968.16
2022-12-14T09:56:03.420Z,100970.97
2022-12-14T09:58:35.232Z,100970.94
2022-12-14T10:01:40.030Z,100966.41
2022-12-14T10:04:26.139Z,100962.69
2022-12-14T10:07:09.799Z,100959.38
2022-12-14T10:09:49.718Z,100967.03
2022-12-14T10:12:40.788Z,100960.50
2022-12-14T10:15:26.828Z,100943.50
2022-12-14T10:18:59.702Z,100951.50
2022-12-14T10:21:46.785Z,100953.03
2022-12-14T10:24:26.427Z,100951.00
2022-12-14T10:26:59.075Z,100949.31
2022-12-14T10:29:34.827Z,100950.50
2022-12-14T10:32:21.966Z,100953.28
2022-12-14T10:34:54.370Z,100950.78
2022-12-14T10:37:30.471Z,100945.09
2022-12-14T10:40:33.237Z,100947.41
2022-12-14T10:43:46.792Z,100948.94
2022-12-14T10:46:29.847Z,100957.78
2022-12-14T10:49:11.937Z,100950.06
2022-12-14T10:51:50.036Z,100956.94
2022-12-14T10:54:31.697Z,100954.84
2022-12-14T10:57:02.775Z,100957.69
2022-12-14T10:59:42.378Z,100949.19
2022-12-14T11:02:25.571Z,100953.22
2022-12-14T11:05:00.750Z,100939.88
2022-12-14T11:07:46.129Z,100938.59
2022-12-14T11:10:21.462Z,100941.38
2022-12-14T11:13:06.160Z,100942.97
2022-12-14T11:15:39.107Z,100936.44
2022-12-14T11:18:32.464Z,100931.16
2022-12-14T11:21:06.935Z,100936.78
2022-12-14T11:23:45.110Z,100940.34
2022-12-14T11:26:31.149Z,100934.25
2022-12-14T11:29:05.540Z,100934.66
2022-12-14T11:31:42.229Z,100943.13
2022-12-14T11:34:31.491Z,100935.44
2022-12-14T11:37:17.494Z,100943.91
2022-12-14T11:39:54.297Z,100951.22
2022-12-14T11:42:26.354Z,100954.03
2022-12-14T11:44:57.738Z,100945.56
2022-12-14T11:47:29.825Z,100953.66
2022-12-14T11:50:00.894Z,100950.84
2022-12-14T11:52:45.353Z,100957.28
2022-12-14T11:55:27.240Z,100960.97
2022-12-14T11:58:01.920Z,100963.78
2022-12-14T12:00:49.141Z,100970.22
2022-12-14T12:03:41.810Z,100974.69
2022-12-14T12:06:16.272Z,100977.50
2022-12-14T12:08:48.603Z,100980.78
2022-12-14T12:11:24.041Z,100981.19
2022-12-14T12:14:02.153Z,100978.38
2022-12-14T12:16:36.069Z,100985.25
2022-12-14T12:19:14.608Z,100984.41
2022-12-14T12:21:47.877Z,100983.59
2022-12-14T12:24:25.647Z,100978.31
2022-12-14T12:27:01.312Z,100979.91
2022-12-14T12:29:39.293Z,100983.13
2022-12-14T12:32:15.454Z,100981.84
2022-12-14T12:34:54.847Z,100987.88
2022-12-14T12:37:45.365Z,100992.72
2022-12-14T12:40:24.369Z,100986.25
2022-12-14T12:43:07.343Z,100985.44
2022-12-14T12:45:47.086Z,100995.09
2022-12-14T12:48:25.882Z,100993.47
2022-12-14T12:51:02.608Z,100989.00
2022-12-14T12:53:41.282Z,100995.41
2022-12-14T12:56:20.130Z,100986.06
2022-12-14T12:58:55.353Z,100985.53
2022-12-14T13:01:34.618Z,100995.16
2022-12-14T13:04:08.166Z,100994.25
2022-12-14T13:06:46.683Z,100987.38
2022-12-14T13:09:37.328Z,100995.38
2022-12-14T13:12:18.615Z,100989.69
2022-12-14T13:14:53.286Z,100988.03
2022-12-14T13:17:33.639Z,100989.22
2022-12-14T13:20:09.202Z,100988.78
2022-12-14T13:22:42.934Z,100992.38
2022-12-14T13:25:24.473Z,100997.19
2022-12-14T13:28:22.942Z,100998.38
2022-12-14T13:31:22.830Z,100995.16
2022-12-14T13:34:19.651Z,100995.50
2022-12-14T13:37:27.812Z,100991.44
2022-12-14T13:40:47.579Z,100988.94
2022-12-14T13:43:47.395Z,100992.50
2022-12-14T13:46:27.858Z,100994.06
2022-12-14T13:49:03.408Z,101001.25
2022-12-14T13:51:40.935Z,101011.34
2022-12-14T13:54:28.124Z,101011.34
2022-12-14T13:57:08.803Z,101009.72
2022-12-14T13:59:45.289Z,101011.34
2022-12-14T14:02:56.157Z,101012.91
2022-12-14T14:05:48.493Z,101010.47
2022-12-14T14:08:39.508Z,101014.50
2022-12-14T14:12:05.125Z,101014.44
2022-12-14T14:14:55.608Z,101013.59
2022-12-14T14:17:32.687Z,101010.78
2022-12-14T14:20:37.302Z,101016.41
2022-12-14T14:23:41.083Z,101015.53
2022-12-14T14:26:31.875Z,101017.50
2022-12-14T14:29:28.956Z,101022.69
2022-12-14T14:32:04.720Z,101025.91
2022-12-14T14:34:50.131Z,101026.69
2022-12-14T14:37:44.200Z,101031.94
2022-12-14T14:41:06.343Z,101026.63
2022-12-14T14:43:34.236Z,101031.03
2022-12-14T14:46:08.868Z,101035.88
2022-12-14T14:48:44.673Z,101039.88
2022-12-14T14:51:23.854Z,101038.22
2022-12-14T14:55:21.276Z,101045.00
2022-12-14T14:57:57.280Z,101045.34
2022-12-14T15:00:28.155Z,101059.03
2022-12-14T15:03:02.122Z,101061.84
2022-12-14T15:05:42.388Z,101069.47
2022-12-14T15:08:23.957Z,101073.47
2022-12-14T15:10:58.080Z,101073.84
2022-12-14T15:13:35.511Z,101077.06
2022-12-14T15:16:27.241Z,101090.69
2022-12-14T15:18:58.421Z,101081.78
2022-12-14T15:21:29.318Z,101090.25
2022-12-14T15:24:00.037Z,101092.63
2022-12-14T15:26:35.893Z,101093.78
2022-12-14T15:29:06.795Z,101097.38
2022-12-14T15:31:42.471Z,101096.91
2022-12-14T15:34:21.083Z,101100.91
2022-12-14T15:36:53.550Z,101104.13
2022-12-14T15:39:40.483Z,101107.66
2022-12-14T15:42:21.280Z,101121.31
2022-12-14T15:44:56.119Z,101118.03
2022-12-14T15:47:32.655Z,101119.59
2022-12-14T15:50:20.164Z,101120.78
2022-12-14T15:53:01.841Z,101120.31
2022-12-14T15:55:38.205Z,101120.69
2022-12-14T15:58:21.874Z,101126.72
2022-12-14T16:00:55.481Z,101121.78
2022-12-14T16:03:34.940Z,101126.59
2022-12-14T16:06:07.041Z,101118.88
2022-12-14T16:08:42.172Z,101125.72
2022-12-14T16:11:26.618Z,101125.22
2022-12-14T16:14:03.989Z,101125.59
2022-12-14T16:16:35.309Z,101127.50
2022-12-14T16:19:26.384Z,101134.78
2022-12-14T16:22:23.760Z,101133.50
2022-12-14T16:25:19.454Z,101128.22
2022-12-14T16:27:52.427Z,101128.59
2022-12-14T16:30:30.279Z,101135.88
2022-12-14T16:33:22.997Z,101128.13
2022-12-14T16:36:09.144Z,101140.59
2022-12-14T16:38:56.428Z,101131.31
2022-12-14T16:41:38.782Z,101138.94
2022-12-14T16:44:21.643Z,101135.31
2022-12-14T16:47:43.146Z,101138.53
2022-12-14T16:50:55.061Z,101136.88
2022-12-14T16:53:24.927Z,101134.41
2022-12-14T16:56:08.619Z,101139.25
2022-12-14T16:58:41.026Z,101140.78
2022-12-14T17:01:13.568Z,101139.97
2022-12-14T17:03:46.570Z,101138.31
2022-12-14T17:06:27.594Z,101135.06
2022-12-14T17:08:58.335Z,101146.69
2022-12-14T17:11:31.337Z,101145.03
2022-12-14T17:14:02.128Z,101143.78
2022-12-14T17:16:32.349Z,101154.59
2022-12-14T17:19:06.296Z,101147.69
2022-12-14T17:21:38.027Z,101150.03
2022-12-14T17:24:09.085Z,101154.03
2022-12-14T17:26:39.726Z,101155.22
2022-12-14T17:29:18.940Z,101156.44
2022-12-14T17:31:50.603Z,101165.22
2022-12-14T17:34:23.046Z,101162.78
2022-12-14T17:36:54.205Z,101162.78
2022-12-14T17:39:25.610Z,101167.56
2022-12-14T17:41:56.158Z,101168.78
2022-12-14T17:44:26.219Z,101175.59
2022-12-14T17:46:56.642Z,101181.56
2022-12-14T17:49:35.845Z,101177.94
2022-12-14T17:52:09.811Z,101186.72
2022-12-14T17:54:40.480Z,101182.31
2022-12-14T17:57:17.903Z,101187.09
2022-12-14T17:59:49.275Z,101187.47
2022-12-14T18:02:30.353Z,101187.47
2022-12-14T18:05:03.093Z,101178.09
2022-12-14T18:07:34.026Z,101186.53
2022-12-14T18:10:04.854Z,101181.28
2022-12-14T18:12:34.893Z,101191.72
2022-12-14T18:15:05.412Z,101180.81
2022-12-14T18:17:35.880Z,101182.00
2022-12-14T18:20:10.646Z,101175.56
2022-12-14T18:22:41.616Z,101180.34
2022-12-14T18:25:39.823Z,101178.72
2022-12-14T18:28:22.896Z,101171.41
2022-12-14T18:30:59.852Z,101175.44
2022-12-14T18:33:32.359Z,101174.97
2022-12-14T18:36:04.885Z,101177.78
2022-12-14T18:38:35.687Z,101174.50
2022-12-14T18:41:05.828Z,101177.69
2022-12-14T18:43:43.212Z,101172.88
2022-12-14T18:46:14.050Z,101179.19
2022-12-14T18:48:45.821Z,101171.50
2022-12-14T18:51:23.912Z,101180.28
2022-12-14T18:53:54.546Z,101178.22
2022-12-14T18:56:28.881Z,101177.75
2022-12-14T18:59:00.947Z,101177.28
2022-12-14T19:01:30.777Z,101182.91
2022-12-14T19:04:01.483Z,101186.09
2022-12-14T19:06:48.696Z,101178.81
2022-12-14T19:09:18.963Z,101179.91
2022-12-14T19:11:50.605Z,101189.16
2022-12-14T19:14:20.508Z,101188.34
2022-12-14T19:16:50.628Z,101182.25
2022-12-14T19:19:24.060Z,101191.06
2022-12-14T19:21:57.664Z,101187.78
2022-12-14T19:24:29.013Z,101192.13
2022-12-14T19:26:59.172Z,101186.84
2022-12-14T19:29:31.302Z,101181.59
2022-12-14T19:32:05.649Z,101188.75
2022-12-14T19:34:36.976Z,101186.28
2022-12-14T19:37:08.867Z,101186.63
2022-12-14T19:39:39.093Z,101191.81
2022-12-14T19:42:11.689Z,101188.50
2022-12-14T19:44:42.352Z,101187.72
2022-12-14T19:47:12.655Z,101183.25
2022-12-14T19:49:43.733Z,101178.81
2022-12-14T19:52:16.749Z,101173.19
2022-12-14T19:54:47.490Z,101177.16
2022-12-14T19:57:18.144Z,101174.34
2022-12-14T19:59:48.848Z,101171.06
2022-12-14T20:02:19.499Z,101171.06
2022-12-14T20:04:50.218Z,101172.25
2022-12-14T20:07:22.777Z,101176.25
2022-12-14T20:09:53.506Z,101179.41
2022-12-14T20:12:24.119Z,101179.41
2022-12-14T20:14:54.441Z,101167.34
2022-12-14T20:17:26.304Z,101164.88
2022-12-14T20:19:58.728Z,101174.50
2022-12-14T20:22:31.019Z,101177.66
2022-12-14T20:25:02.149Z,101176.03
2022-12-14T20:27:38.895Z,101173.06
2022-12-14T20:30:13.111Z,101184.22
2022-12-14T20:32:49.142Z,101171.69
2022-12-14T20:35:20.799Z,101176.03
2022-12-14T20:37:56.419Z,101173.56
2022-12-14T20:40:27.088Z,101183.53
2022-12-14T20:42:57.770Z,101177.06
2022-12-14T20:45:28.366Z,101173.00
2022-12-14T20:47:59.204Z,101172.88
2022-12-14T20:50:31.025Z,101170.44
2022-12-14T20:53:03.605Z,101169.59
2022-12-14T20:55:33.370Z,101175.22
2022-12-14T20:58:04.898Z,101173.25
2022-12-14T21:00:35.281Z,101173.25
2022-12-14T21:03:06.820Z,101174.06
2022-12-14T21:05:42.289Z,101171.63
2022-12-14T21:08:16.284Z,101176.06
2022-12-14T21:10:47.133Z,101169.13
2022-12-14T21:13:15.845Z,101176.41
2022-12-14T21:15:46.508Z,101159.09
2022-12-14T21:18:17.353Z,101164.72
2022-12-14T21:20:49.122Z,101162.22
2022-12-14T21:23:21.427Z,101169.88
2022-12-14T21:25:52.382Z,101169.03
2022-12-14T21:28:26.186Z,101169.03
2022-12-14T21:31:06.001Z,101166.22
2022-12-14T21:33:37.666Z,101170.19
2022-12-14T21:36:09.351Z,101168.22
2022-12-14T21:38:41.843Z,101167.84
2022-12-14T21:41:30.739Z,101160.59
2022-12-14T21:44:02.940Z,101160.97
2022-12-14T21:46:33.034Z,101170.19
2022-12-14T21:49:03.452Z,101162.97
2022-12-14T21:51:33.908Z,101162.13
2022-12-14T21:54:06.883Z,101169.75
2022-12-14T21:56:55.746Z,101159.69
2022-12-14T21:59:29.582Z,101160.00
2022-12-14T22:02:03.055Z,101160.38
2022-12-14T22:04:39.577Z,101158.75
2022-12-14T22:07:10.850Z,101152.31
2022-12-14T22:09:42.814Z,101163.56
2022-12-14T22:12:15.010Z,101162.72
2022-12-14T22:14:45.807Z,101163.88
2022-12-14T22:17:16.492Z,101167.53
2022-12-14T22:19:47.113Z,101169.50
2022-12-14T22:22:19.597Z,101171.16
2022-12-14T22:24:53.093Z,101177.63
2022-12-14T22:27:23.960Z,101179.94
2022-12-14T22:29:54.102Z,101178.31
2022-12-14T22:32:24.265Z,101176.19
2022-12-14T22:35:21.094Z,101179.00
2022-12-14T22:37:51.798Z,101183.72
2022-12-14T22:40:24.315Z,101177.63
2022-12-14T22:42:55.202Z,101178.78
2022-12-14T22:45:24.980Z,101176.78
2022-12-14T22:47:56.205Z,101180.31
2022-12-14T22:50:26.449Z,101175.03
2022-12-14T22:52:57.227Z,101177.41
2022-12-14T22:55:35.271Z,101182.19
2022-12-14T22:58:07.222Z,101179.72
2022-12-14T23:00:37.951Z,101176.09
2022-12-14T23:03:08.636Z,101173.63
2022-12-14T23:05:40.628Z,101175.28
2022-12-14T23:08:11.372Z,101179.63
2022-12-14T23:11:00.073Z,101178.47
2022-12-14T23:13:47.269Z,101177.16
2022-12-14T23:16:33.994Z,101174.69
2022-12-14T23:19:20.990Z,101176.69
2022-12-14T23:22:07.950Z,101182.16
2022-12-14T23:24:55.138Z,101174.06
2022-12-14T23:27:44.709Z,101179.22
2022-12-14T23:30:32.328Z,101174.78
2022-12-14T23:33:19.320Z,101171.53
2022-12-14T23:36:06.451Z,101166.72
2022-12-14T23:38:53.435Z,101171.53
2022-12-14T23:41:40.209Z,101172.69
2022-12-14T23:44:29.940Z,101171.38
2022-12-14T23:47:16.952Z,101172.09
2022-12-14T23:50:03.851Z,101163.19
2022-12-14T23:52:51.015Z,101165.16
2022-12-14T23:55:38.120Z,101163.56
2022-12-14T23:58:25.264Z,101163.06
